createdAt,value
2022-08-28T00:01:44.539Z,36.20
2022-08-28T00:04:46.559Z,35.80
2022-08-28T00:07:49.308Z,35.90
2022-08-28T00:10:51.670Z,36.30
2022-08-28T00:13:53.801Z,35.80
2022-08-28T00:16:58.823Z,36.40
2022-08-28T00:20:00.969Z,36.80
2022-08-28T00:23:03.049Z,37.00
2022-08-28T00:26:05.204Z,36.80
2022-08-28T00:29:08.325Z,36.60
2022-08-28T00:32:10.959Z,36.70
2022-08-28T00:35:12.914Z,36.70
2022-08-28T00:38:18.671Z,36.60
2022-08-28T00:41:24.875Z,36.60
2022-08-28T00:44:28.889Z,36.90
2022-08-28T00:47:30.939Z,37.00
2022-08-28T00:50:56.813Z,37.10
2022-08-28T00:54:07.361Z,37.10
2022-08-28T00:57:15.059Z,36.90
2022-08-28T01:00:27.537Z,37.10
2022-08-28T01:03:29.668Z,37.10
2022-08-28T01:06:32.062Z,37.00
2022-08-28T01:09:37.738Z,36.70
2022-08-28T01:12:40.684Z,36.70
2022-08-28T01:15:43.284Z,36.60
2022-08-28T01:18:46.934Z,36.60
2022-08-28T01:22:17.608Z,36.60
2022-08-28T01:25:22.298Z,36.70
2022-08-28T01:28:24.521Z,36.50
2022-08-28T01:31:28.943Z,36.60
2022-08-28T01:34:31.652Z,37.20
2022-08-28T01:37:33.595Z,36.60
2022-08-28T01:40:40.010Z,36.70
2022-08-28T01:43:43.461Z,36.80
2022-08-28T01:46:46.045Z,36.70
2022-08-28T01:49:48.278Z,36.80
2022-08-28T01:52:50.384Z,36.70
2022-08-28T01:55:54.683Z,36.70
2022-08-28T01:58:56.888Z,36.60
2022-08-28T02:01:58.973Z,36.60
2022-08-28T02:05:01.116Z,36.60
2022-08-28T02:08:04.716Z,36.60
2022-08-28T02:11:07.402Z,36.60
2022-08-28T02:14:09.721Z,37.00
2022-08-28T02:17:12.128Z,36.40
2022-08-28T02:20:14.636Z,36.10
2022-08-28T02:23:16.998Z,36.30
2022-08-28T02:26:20.876Z,36.10
2022-08-28T02:29:23.586Z,36.40
2022-08-28T02:32:27.016Z,36.50
2022-08-28T02:35:31.290Z,37.40
2022-08-28T02:38:33.304Z,36.80
2022-08-28T02:41:35.506Z,36.70
2022-08-28T02:44:37.552Z,36.70
2022-08-28T02:47:42.387Z,36.40
2022-08-28T02:50:45.202Z,36.40
2022-08-28T02:53:47.375Z,36.20
2022-08-28T02:56:49.819Z,35.90
2022-08-28T02:59:51.879Z,35.90
2022-08-28T03:02:54.364Z,36.00
2022-08-28T03:05:57.165Z,36.20
2022-08-28T03:08:59.969Z,36.10
2022-08-28T03:12:02.362Z,36.20
2022-08-28T03:15:06.101Z,36.20
2022-08-28T03:18:11.128Z,35.90
2022-08-28T03:21:13.557Z,36.10
2022-08-28T03:24:15.818Z,36.00
2022-08-28T03:27:18.181Z,36.20
2022-08-28T03:30:21.794Z,36.10
2022-08-28T03:33:24.814Z,36.20
2022-08-28T03:36:28.510Z,36.60
2022-08-28T03:39:30.463Z,36.40
2022-08-28T03:42:33.945Z,36.50
2022-08-28T03:45:35.925Z,36.50
2022-08-28T03:48:38.600Z,36.60
2022-08-28T03:51:45.477Z,37.30
2022-08-28T03:54:48.090Z,36.60
2022-08-28T03:57:51.571Z,36.60
2022-08-28T04:00:54.174Z,36.50
2022-08-28T04:03:57.042Z,36.50
2022-08-28T04:06:59.921Z,36.50
2022-08-28T04:10:02.144Z,36.50
2022-08-28T04:13:04.256Z,36.40
2022-08-28T04:16:12.134Z,36.50
2022-08-28T04:19:14.322Z,36.20
2022-08-28T04:22:16.418Z,36.60
2022-08-28T04:25:21.465Z,36.60
2022-08-28T04:28:24.323Z,36.70
2022-08-28T04:31:32.335Z,36.70
2022-08-28T04:34:36.640Z,36.50
2022-08-28T04:37:39.866Z,36.50
2022-08-28T04:40:43.116Z,36.60
2022-08-28T04:43:45.410Z,36.70
2022-08-28T04:46:48.406Z,36.70
2022-08-28T04:49:50.705Z,36.70
2022-08-28T04:52:52.639Z,36.50
2022-08-28T04:55:55.977Z,36.30
2022-08-28T04:58:58.448Z,36.10
2022-08-28T05:02:00.564Z,36.20
2022-08-28T05:05:03.293Z,36.00
2022-08-28T05:08:05.383Z,36.00
2022-08-28T05:11:13.813Z,36.10
2022-08-28T05:14:32.914Z,36.00
2022-08-28T05:17:34.826Z,36.00
2022-08-28T05:20:42.425Z,36.00
2022-08-28T05:23:44.457Z,36.00
2022-08-28T05:26:48.319Z,35.70
2022-08-28T05:29:50.996Z,35.80
2022-08-28T05:32:53.927Z,35.50
2022-08-28T05:35:55.885Z,35.20
2022-08-28T05:38:58.542Z,35.50
2022-08-28T05:42:00.505Z,35.60
2022-08-28T05:45:02.625Z,35.40
2022-08-28T05:48:05.618Z,35.30
2022-08-28T05:51:14.529Z,35.10
2022-08-28T05:54:17.148Z,35.00
2022-08-28T05:57:19.230Z,34.80
2022-08-28T06:00:21.466Z,34.40
2022-08-28T06:03:23.596Z,34.10
2022-08-28T06:06:27.604Z,34.10
2022-08-28T06:09:30.332Z,33.60
2022-08-28T06:12:32.538Z,33.00
2022-08-28T06:15:40.912Z,33.00
2022-08-28T06:18:42.840Z,32.90
2022-08-28T06:21:48.081Z,32.40
2022-08-28T06:24:50.016Z,32.50
2022-08-28T06:27:52.126Z,32.60
2022-08-28T06:31:22.963Z,32.90
2022-08-28T06:34:19.254Z,32.90
2022-08-28T06:37:21.255Z,32.60
2022-08-28T06:40:23.440Z,32.50
2022-08-28T06:43:28.258Z,32.80
2022-08-28T06:46:33.178Z,32.20
2022-08-28T06:49:35.681Z,32.30
2022-08-28T06:52:38.214Z,32.40
2022-08-28T06:55:44.258Z,31.80
2022-08-28T06:58:50.248Z,31.80
2022-08-28T07:01:55.428Z,32.40
2022-08-28T07:04:57.645Z,31.40
2022-08-28T07:07:59.831Z,31.00
2022-08-28T07:11:14.789Z,30.50
2022-08-28T07:14:17.109Z,30.30
2022-08-28T07:17:19.351Z,30.00
2022-08-28T07:20:21.323Z,30.00
2022-08-28T07:23:26.077Z,30.00
2022-08-28T07:26:28.133Z,30.00
2022-08-28T07:29:31.278Z,30.00
2022-08-28T07:32:34.017Z,30.30
2022-08-28T07:35:36.152Z,29.90
2022-08-28T07:38:38.503Z,30.40
2022-08-28T07:41:42.741Z,30.60
2022-08-28T07:44:50.925Z,30.60
2022-08-28T07:47:53.003Z,31.10
2022-08-28T07:50:55.467Z,31.20
2022-08-28T07:53:57.880Z,31.50
2022-08-28T07:57:00.014Z,31.90
2022-08-28T08:00:02.540Z,32.00
2022-08-28T08:03:05.050Z,32.00
2022-08-28T08:06:08.051Z,32.30
2022-08-28T08:09:13.847Z,32.00
2022-08-28T08:12:16.012Z,32.20
2022-08-28T08:15:17.987Z,32.10
2022-08-28T08:18:20.841Z,32.00
2022-08-28T08:21:30.076Z,31.80
2022-08-28T08:24:32.997Z,32.00
2022-08-28T08:27:38.810Z,31.80
2022-08-28T08:30:43.669Z,32.10
2022-08-28T08:33:48.548Z,32.50
2022-08-28T08:36:50.652Z,32.90
2022-08-28T08:39:53.817Z,33.20
2022-08-28T08:42:57.146Z,33.60
2022-08-28T08:45:59.237Z,33.30
2022-08-28T08:49:05.859Z,33.80
2022-08-28T08:52:19.120Z,33.80
2022-08-28T08:55:32.054Z,33.70
2022-08-28T08:58:42.826Z,33.50
2022-08-28T09:02:14.029Z,34.10
2022-08-28T09:05:47.046Z,34.20
2022-08-28T09:08:56.978Z,33.80
2022-08-28T09:12:03.065Z,33.10
2022-08-28T09:15:17.592Z,33.10
2022-08-28T09:18:31.047Z,33.10
2022-08-28T09:21:41.106Z,32.40
2022-08-28T09:24:43.088Z,32.20
2022-08-28T09:27:47.634Z,32.80
2022-08-28T09:30:57.526Z,32.40
2022-08-28T09:34:17.226Z,33.00
2022-08-28T09:37:27.034Z,32.90
2022-08-28T09:40:50.584Z,32.80
2022-08-28T09:43:52.791Z,33.00
2022-08-28T09:46:54.933Z,32.30
2022-08-28T09:50:23.277Z,32.10
2022-08-28T09:53:28.419Z,32.50
2022-08-28T09:56:33.650Z,32.40
2022-08-28T09:59:35.876Z,32.60
2022-08-28T10:02:58.212Z,32.70
2022-08-28T10:06:08.683Z,32.40
2022-08-28T10:09:19.526Z,32.50
2022-08-28T10:12:45.773Z,33.20
2022-08-28T10:16:22.628Z,33.00
2022-08-28T10:19:32.279Z,32.30
2022-08-28T10:22:40.385Z,32.30
2022-08-28T10:26:03.300Z,32.10
2022-08-28T10:29:22.351Z,31.90
2022-08-28T10:32:43.041Z,32.80
2022-08-28T10:36:03.262Z,32.10
2022-08-28T10:39:12.389Z,32.30
2022-08-28T10:42:22.836Z,32.10
2022-08-28T10:45:30.586Z,31.90
2022-08-28T10:48:41.274Z,32.30
2022-08-28T10:51:49.753Z,32.60
2022-08-28T10:55:01.518Z,33.00
2022-08-28T10:58:24.523Z,32.90
2022-08-28T11:01:36.631Z,32.70
2022-08-28T11:04:39.013Z,32.90
2022-08-28T11:07:47.663Z,32.30
2022-08-28T11:10:53.160Z,32.80
2022-08-28T11:13:58.082Z,33.40
2022-08-28T11:17:04.957Z,34.20
2022-08-28T11:20:13.262Z,34.60
2022-08-28T11:23:22.560Z,34.20
2022-08-28T11:26:38.795Z,35.00
2022-08-28T11:30:01.468Z,35.70
2022-08-28T11:33:28.421Z,34.90
2022-08-28T11:36:32.392Z,35.30
2022-08-28T11:39:34.507Z,36.10
2022-08-28T11:42:37.688Z,36.00
2022-08-28T11:45:46.517Z,36.50
2022-08-28T11:48:52.377Z,36.00
2022-08-28T11:51:57.099Z,35.60
2022-08-28T11:54:59.393Z,36.10
2022-08-28T11:58:17.025Z,35.90
2022-08-28T12:01:35.452Z,36.30
2022-08-28T12:04:42.676Z,36.30
2022-08-28T12:07:50.191Z,36.40
2022-08-28T12:10:58.015Z,35.50
2022-08-28T12:14:03.507Z,36.20
2022-08-28T12:17:05.801Z,35.50
2022-08-28T12:20:33.835Z,36.30
2022-08-28T12:23:39.882Z,36.20
2022-08-28T12:26:50.358Z,36.70
2022-08-28T12:29:55.239Z,36.90
2022-08-28T12:33:18.382Z,37.70
2022-08-28T12:36:26.785Z,37.60
2022-08-28T12:39:31.551Z,37.80
2022-08-28T12:42:38.074Z,37.90
2022-08-28T12:45:51.618Z,38.20
2022-08-28T12:48:58.639Z,37.40
2022-08-28T12:52:17.248Z,38.10
2022-08-28T12:55:24.224Z,38.40
2022-08-28T12:58:33.938Z,38.00
2022-08-28T13:01:35.941Z,38.20
2022-08-28T13:04:42.132Z,37.90
2022-08-28T13:07:50.896Z,37.90
2022-08-28T13:10:53.215Z,38.10
2022-08-28T13:13:56.562Z,38.00
2022-08-28T13:16:58.774Z,37.80
2022-08-28T13:20:07.687Z,37.20
2022-08-28T13:23:29.130Z,37.00
2022-08-28T13:26:33.695Z,36.80
2022-08-28T13:29:37.018Z,36.20
2022-08-28T13:32:40.091Z,35.50
2022-08-28T13:35:42.850Z,35.00
2022-08-28T13:38:44.921Z,35.60
2022-08-28T13:41:50.516Z,34.90
2022-08-28T13:44:55.921Z,35.20
2022-08-28T13:47:58.006Z,34.50
2022-08-28T13:51:05.544Z,34.50
2022-08-28T13:54:12.893Z,36.00
2022-08-28T13:57:15.704Z,35.70
2022-08-28T14:00:18.092Z,35.50
2022-08-28T14:03:35.790Z,35.50
2022-08-28T14:06:37.935Z,35.10
2022-08-28T14:09:40.216Z,34.50
2022-08-28T14:12:43.627Z,34.40
2022-08-28T14:15:46.464Z,34.70
2022-08-28T14:18:48.620Z,35.10
2022-08-28T14:21:50.723Z,35.00
2022-08-28T14:24:52.989Z,35.50
2022-08-28T14:27:55.812Z,35.30
2022-08-28T14:30:57.961Z,35.50
2022-08-28T14:33:59.958Z,35.40
2022-08-28T14:37:02.996Z,35.10
2022-08-28T14:40:06.362Z,35.10
2022-08-28T14:43:10.123Z,35.00
2022-08-28T14:46:17.209Z,35.00
2022-08-28T14:49:20.772Z,33.60
2022-08-28T14:52:22.904Z,34.20
2022-08-28T14:55:26.358Z,34.30
2022-08-28T14:58:28.252Z,34.00
2022-08-28T15:01:39.819Z,34.10
2022-08-28T15:04:43.124Z,34.00
2022-08-28T15:07:45.698Z,34.50
2022-08-28T15:10:48.596Z,33.60
2022-08-28T15:13:52.389Z,33.60
2022-08-28T15:16:54.422Z,34.00
2022-08-28T15:19:56.661Z,33.30
2022-08-28T15:22:58.673Z,33.20
2022-08-28T15:26:00.947Z,34.20
2022-08-28T15:29:04.165Z,33.30
2022-08-28T15:32:06.984Z,34.20
2022-08-28T15:35:09.325Z,34.70
2022-08-28T15:38:11.590Z,35.10
2022-08-28T15:41:25.488Z,35.20
2022-08-28T15:44:28.599Z,34.70
2022-08-28T15:47:30.627Z,35.50
2022-08-28T15:50:32.998Z,35.20
2022-08-28T15:53:35.452Z,35.10
2022-08-28T15:56:37.634Z,34.70
2022-08-28T15:59:50.176Z,35.00
2022-08-28T16:02:55.805Z,34.20
2022-08-28T16:05:57.777Z,34.60
2022-08-28T16:09:00.013Z,35.30
2022-08-28T16:12:01.947Z,36.10
2022-08-28T16:15:04.655Z,36.10
2022-08-28T16:18:09.014Z,36.10
2022-08-28T16:21:12.341Z,35.60
2022-08-28T16:24:14.280Z,35.60
2022-08-28T16:27:16.828Z,35.70
2022-08-28T16:30:18.956Z,35.50
2022-08-28T16:33:22.295Z,35.80
2022-08-28T16:36:25.236Z,35.50
2022-08-28T16:39:28.095Z,35.20
2022-08-28T16:42:32.843Z,34.70
2022-08-28T16:45:37.304Z,35.00
2022-08-28T16:48:40.337Z,35.30
2022-08-28T16:51:42.529Z,36.10
2022-08-28T16:54:48.446Z,36.00
2022-08-28T16:57:52.327Z,35.90
2022-08-28T17:00:54.994Z,35.90
2022-08-28T17:03:59.156Z,36.00
2022-08-28T17:07:01.780Z,35.60
2022-08-28T17:10:04.758Z,34.90
2022-08-28T17:13:06.654Z,34.60
2022-08-28T17:16:10.109Z,34.40
2022-08-28T17:19:12.127Z,34.80
2022-08-28T17:22:32.551Z,35.30
2022-08-28T17:25:34.578Z,35.60
2022-08-28T17:28:36.791Z,35.90
2022-08-28T17:31:39.160Z,35.70
2022-08-28T17:34:41.561Z,35.50
2022-08-28T17:37:44.698Z,35.30
2022-08-28T17:40:46.888Z,35.10
2022-08-28T17:43:48.799Z,35.30
2022-08-28T17:46:51.813Z,35.00
2022-08-28T17:49:53.819Z,34.90
2022-08-28T17:52:55.950Z,35.20
2022-08-28T17:55:58.345Z,35.00
2022-08-28T17:59:00.550Z,34.80
2022-08-28T18:02:02.651Z,34.70
2022-08-28T18:05:07.288Z,34.60
2022-08-28T18:08:09.508Z,34.80
2022-08-28T18:11:13.473Z,35.20
2022-08-28T18:14:15.627Z,34.90
2022-08-28T18:17:19.427Z,35.20
2022-08-28T18:20:21.746Z,35.20
2022-08-28T18:23:24.039Z,35.20
2022-08-28T18:26:26.157Z,35.10
2022-08-28T18:29:28.721Z,35.00
2022-08-28T18:32:30.890Z,35.40
2022-08-28T18:35:33.721Z,35.10
2022-08-28T18:38:36.940Z,35.20
2022-08-28T18:41:43.813Z,35.10
2022-08-28T18:44:46.937Z,35.20
2022-08-28T18:47:48.928Z,35.20
2022-08-28T18:50:51.162Z,35.40
2022-08-28T18:53:53.231Z,35.50
2022-08-28T18:57:01.351Z,35.40
2022-08-28T19:00:06.984Z,35.50
2022-08-28T19:03:09.381Z,35.30
2022-08-28T19:06:15.840Z,35.30
2022-08-28T19:09:20.701Z,35.20
2022-08-28T19:12:23.177Z,35.00
2022-08-28T19:15:25.261Z,35.10
2022-08-28T19:18:28.694Z,35.10
2022-08-28T19:21:30.876Z,35.20
2022-08-28T19:24:36.308Z,35.00
2022-08-28T19:27:39.255Z,35.20
2022-08-28T19:30:41.398Z,35.00
2022-08-28T19:33:44.471Z,34.90
2022-08-28T19:36:46.492Z,34.80
2022-08-28T19:39:48.598Z,35.00
2022-08-28T19:42:58.557Z,35.00
2022-08-28T19:46:09.347Z,34.90
2022-08-28T19:49:16.381Z,34.90
2022-08-28T19:52:19.066Z,34.80
2022-08-28T19:55:25.968Z,34.80
2022-08-28T19:58:28.408Z,34.80
2022-08-28T20:01:33.049Z,34.80
2022-08-28T20:04:36.203Z,34.90
2022-08-28T20:07:38.111Z,34.90
2022-08-28T20:10:41.421Z,35.00
2022-08-28T20:13:43.797Z,34.90
2022-08-28T20:16:48.528Z,35.30
2022-08-28T20:19:50.623Z,35.00
2022-08-28T20:22:54.150Z,34.90
2022-08-28T20:25:56.636Z,34.80
2022-08-28T20:28:58.702Z,35.10
2022-08-28T20:32:01.279Z,36.00
2022-08-28T20:35:07.067Z,35.40
2022-08-28T20:38:11.045Z,35.50
2022-08-28T20:41:18.315Z,35.50
2022-08-28T20:44:21.585Z,35.60
2022-08-28T20:47:23.687Z,35.00
2022-08-28T20:50:25.571Z,34.70
2022-08-28T20:53:37.594Z,34.70
2022-08-28T20:56:40.411Z,34.90
2022-08-28T20:59:44.298Z,34.90
2022-08-28T21:02:46.239Z,34.90
2022-08-28T21:05:49.006Z,34.60
2022-08-28T21:08:53.273Z,34.50
2022-08-28T21:11:55.393Z,34.50
2022-08-28T21:14:57.531Z,34.60
2022-08-28T21:17:59.783Z,34.40
2022-08-28T21:21:06.161Z,34.50
2022-08-28T21:24:11.032Z,34.80
2022-08-28T21:27:12.965Z,34.50
2022-08-28T21:30:17.610Z,34.10
2022-08-28T21:33:20.216Z,34.20
2022-08-28T21:36:22.318Z,34.30
2022-08-28T21:39:24.259Z,34.00
2022-08-28T21:42:27.568Z,34.30
2022-08-28T21:45:29.494Z,34.30
2022-08-28T21:48:32.026Z,34.40
2022-08-28T21:51:34.047Z,34.30
2022-08-28T21:54:36.882Z,34.00
2022-08-28T21:57:38.937Z,34.00
2022-08-28T22:00:41.148Z,34.10
2022-08-28T22:03:43.156Z,34.10
2022-08-28T22:06:45.267Z,33.90
2022-08-28T22:09:47.337Z,33.80
2022-08-28T22:12:49.452Z,33.90
2022-08-28T22:15:51.457Z,33.90
2022-08-28T22:18:53.767Z,34.00
2022-08-28T22:22:14.489Z,34.00
2022-08-28T22:25:16.638Z,34.20
2022-08-28T22:28:18.680Z,34.10
2022-08-28T22:31:20.969Z,33.80
2022-08-28T22:34:22.908Z,33.80
2022-08-28T22:37:25.877Z,34.20
2022-08-28T22:40:27.940Z,34.40
2022-08-28T22:43:30.134Z,34.40
2022-08-28T22:46:32.055Z,34.20
2022-08-28T22:49:34.700Z,34.40
2022-08-28T22:52:44.923Z,34.50
2022-08-28T22:55:47.018Z,34.30
2022-08-28T22:58:48.893Z,34.50
2022-08-28T23:01:51.092Z,34.50
2022-08-28T23:04:52.948Z,34.80
2022-08-28T23:07:55.445Z,34.50
2022-08-28T23:10:59.221Z,34.10
2022-08-28T23:14:02.371Z,34.20
2022-08-28T23:17:04.476Z,34.40
2022-08-28T23:20:08.603Z,34.60
2022-08-28T23:23:12.589Z,34.10
2022-08-28T23:26:15.867Z,34.00
2022-08-28T23:29:18.123Z,33.90
2022-08-28T23:32:20.692Z,34.30
2022-08-28T23:35:23.034Z,34.20
2022-08-28T23:38:25.782Z,34.10
2022-08-28T23:41:28.122Z,33.90
2022-08-28T23:44:30.451Z,33.80
2022-08-28T23:47:33.342Z,34.00
2022-08-28T23:50:35.981Z,33.90
2022-08-28T23:53:39.392Z,34.00
2022-08-28T23:56:41.847Z,34.00
2022-08-28T23:59:44.278Z,34.20
